Time,TemperatureF,DewpointF,PressureIn,WindDirection,WindDirectionDegrees,WindSpeedMPH,WindSpeedGustMPH,Humidity,HourlyPrecipIn,Conditions,Clouds,dailyrainin,SoftwareType,DateUTC
2013-02-03 00:04:00,35.1,24.5,30.21,WNW,284,2.0,-999.0,65,0.00,,,0.00,WeatherSnoop3.0,2013-02-03 06:04:00,
2013-02-03 00:09:00,34.8,24.6,30.21,WNW,283,2.0,-999.0,66,0.00,,,0.00,WeatherSnoop3.0,2013-02-03 06:09:00,
2013-02-03 00:14:00,34.7,24.9,30.22,West,280,2.0,-999.0,67,0.00,,,0.00,WeatherSnoop3.0,2013-02-03 06:14:00,
2013-02-03 00:19:00,34.7,24.9,30.21,WNW,290,1.0,-999.0,67,0.00,,,0.00,WeatherSnoop3.0,2013-02-03 06:19:00,
2013-02-03 00:24:00,34.8,25.0,30.22,WNW,283,2.0,-999.0,67,0.00,,,0.00,WeatherSnoop3.0,2013-02-03 06:24:00,
2013-02-03 00:29:00,34.7,24.9,30.22,West,281,2.0,-999.0,67,0.00,,,0.00,WeatherSnoop3.0,2013-02-03 06:29:00,
2013-02-03 00:34:00,34.7,24.9,30.22,WNW,283,2.0,-999.0,67,0.00,,,0.00,WeatherSnoop3.0,2013-02-03 06:34:00,
2013-02-03 00:39:00,34.8,25.0,30.22,WNW,283,1.0,-999.0,67,0.00,,,0.00,WeatherSnoop3.0,2013-02-03 06:39:00,
2013-02-03 00:44:00,34.7,25.2,30.22,WNW,282,1.0,-999.0,68,0.00,,,0.00,WeatherSnoop3.0,2013-02-03 06:44:00,
2013-02-03 00:49:00,34.8,25.3,30.22,West,275,1.0,-999.0,68,0.00,,,0.00,WeatherSnoop3.0,2013-02-03 06:49:00,
2013-02-03 00:54:00,35.1,25.3,30.22,West,278,1.0,-999.0,67,0.00,,,0.00,WeatherSnoop3.0,2013-02-03 06:54:00,
2013-02-03 00:59:00,35.9,25.3,30.22,West,276,1.0,-999.0,65,0.00,,,0.00,WeatherSnoop3.0,2013-02-03 06:59:00,
2013-02-03 01:04:00,36.1,25.1,30.22,West,280,3.0,-999.0,64,0.00,,,0.00,WeatherSnoop3.0,2013-02-03 07:04:00,
2013-02-03 01:09:00,35.5,24.9,30.22,WNW,288,1.0,-999.0,65,0.00,,,0.00,WeatherSnoop3.0,2013-02-03 07:09:00,
2013-02-03 01:14:00,35.1,24.9,30.22,West,262,1.0,-999.0,66,0.00,,,0.00,WeatherSnoop3.0,2013-02-03 07:14:00,
2013-02-03 01:19:00,35.2,25.0,30.22,West,273,1.0,-999.0,66,0.00,,,0.00,WeatherSnoop3.0,2013-02-03 07:19:00,
2013-02-03 01:24:00,35.8,25.2,30.22,WNW,293,1.0,-999.0,65,0.00,,,0.00,WeatherSnoop3.0,2013-02-03 07:24:00,
2013-02-03 01:29:00,35.9,24.9,30.22,West,280,0.0,-999.0,64,0.00,,,0.00,WeatherSnoop3.0,2013-02-03 07:29:00,
2013-02-03 01:34:00,36.1,24.7,30.22,West,273,1.0,-999.0,63,0.00,,,0.00,WeatherSnoop3.0,2013-02-03 07:34:00,
2013-02-03 01:39:00,37.1,24.9,30.22,West,280,1.0,-999.0,61,0.00,,,0.00,WeatherSnoop3.0,2013-02-03 07:39:00,
2013-02-03 01:44:00,37.7,25.1,30.22,West,276,1.0,-999.0,60,0.00,,,0.00,WeatherSnoop3.0,2013-02-03 07:44:00,
2013-02-03 01:49:00,37.3,24.7,30.22,West,274,1.0,-999.0,60,0.00,,,0.00,WeatherSnoop3.0,2013-02-03 07:49:00,
2013-02-03 01:54:00,36.8,24.6,30.22,West,278,1.0,-999.0,61,0.00,,,0.00,WeatherSnoop3.0,2013-02-03 07:54:00,
2013-02-03 01:59:00,36.5,24.3,30.22,WNW,288,1.0,-999.0,61,0.00,,,0.00,WeatherSnoop3.0,2013-02-03 07:59:00,
2013-02-03 02:04:00,35.9,24.2,30.22,West,277,1.0,-999.0,62,0.00,,,0.00,WeatherSnoop3.0,2013-02-03 08:04:00,
2013-02-03 02:09:00,35.7,24.4,30.22,WSW,257,5.0,-999.0,63,0.00,,,0.00,WeatherSnoop3.0,2013-02-03 08:09:00,
2013-02-03 02:14:00,36.4,24.6,30.21,WNW,294,2.0,-999.0,62,0.00,,,0.00,WeatherSnoop3.0,2013-02-03 08:14:00,
2013-02-03 02:19:00,36.7,24.5,30.22,WNW,285,1.0,-999.0,61,0.00,,,0.00,WeatherSnoop3.0,2013-02-03 08:19:00,
2013-02-03 02:24:00,36.4,24.3,30.22,WNW,301,0.0,-999.0,61,0.00,,,0.00,WeatherSnoop3.0,2013-02-03 08:24:00,
2013-02-03 02:29:00,36.0,24.3,30.22,North,349,1.0,-999.0,62,0.00,,,0.00,WeatherSnoop3.0,2013-02-03 08:29:00,
2013-02-03 02:34:00,35.5,24.2,30.22,WNW,285,0.0,-999.0,63,0.00,,,0.00,WeatherSnoop3.0,2013-02-03 08:34:00,
2013-02-03 02:39:00,35.0,24.1,30.22,NNW,331,0.0,-999.0,64,0.00,,,0.00,WeatherSnoop3.0,2013-02-03 08:39:00,
2013-02-03 02:44:00,34.6,24.1,30.22,WNW,283,0.0,-999.0,65,0.00,,,0.00,WeatherSnoop3.0,2013-02-03 08:44:00,
2013-02-03 02:49:00,34.2,23.7,30.22,West,270,0.0,-999.0,65,0.00,,,0.00,WeatherSnoop3.0,2013-02-03 08:49:00,
2013-02-03 02:54:00,33.4,23.3,30.22,WSW,242,0.0,-999.0,66,0.00,,,0.00,WeatherSnoop3.0,2013-02-03 08:54:00,
2013-02-03 02:59:00,32.7,23.3,30.22,North,360,0.0,-999.0,68,0.00,,,0.00,WeatherSnoop3.0,2013-02-03 08:59:00,
2013-02-03 03:04:00,32.1,23.1,30.22,North,5,0.0,-999.0,69,0.00,,,0.00,WeatherSnoop3.0,2013-02-03 09:04:00,
2013-02-03 03:09:00,31.5,22.9,30.21,North,5,0.0,-999.0,70,0.00,,,0.00,WeatherSnoop3.0,2013-02-03 09:09:00,
2013-02-03 03:14:00,31.0,22.7,30.21,North,5,0.0,-999.0,71,0.00,,,0.00,WeatherSnoop3.0,2013-02-03 09:14:00,
2013-02-03 03:19:00,30.8,22.9,30.21,NNE,20,0.0,-999.0,72,0.00,,,0.00,WeatherSnoop3.0,2013-02-03 09:19:00,
2013-02-03 03:24:00,30.8,22.9,30.21,North,356,2.0,-999.0,72,0.00,,,0.00,WeatherSnoop3.0,2013-02-03 09:24:00,
2013-02-03 03:29:00,30.9,22.6,30.21,NNE,13,0.0,-999.0,71,0.00,,,0.00,WeatherSnoop3.0,2013-02-03 09:29:00,
2013-02-03 03:34:00,30.6,22.7,30.21,NNE,13,0.0,-999.0,72,0.00,,,0.00,WeatherSnoop3.0,2013-02-03 09:34:00,
2013-02-03 03:39:00,30.4,22.5,30.21,NNE,13,0.0,-999.0,72,0.00,,,0.00,WeatherSnoop3.0,2013-02-03 09:39:00,
2013-02-03 03:44:00,29.8,22.2,30.21,NNE,13,0.0,-999.0,73,0.00,,,0.00,WeatherSnoop3.0,2013-02-03 09:44:00,
2013-02-03 03:49:00,29.8,22.5,30.21,North,8,0.0,-999.0,74,0.00,,,0.00,WeatherSnoop3.0,2013-02-03 09:49:00,
2013-02-03 03:54:00,29.9,22.3,30.20,NNE,13,1.0,-999.0,73,0.00,,,0.00,WeatherSnoop3.0,2013-02-03 09:54:00,
2013-02-03 03:59:00,30.3,22.7,30.20,NNE,15,1.0,-999.0,73,0.00,,,0.00,WeatherSnoop3.0,2013-02-03 09:59:00,
2013-02-03 04:04:00,31.0,23.1,30.20,North,349,1.0,-999.0,72,0.00,,,0.00,WeatherSnoop3.0,2013-02-03 10:04:00,
2013-02-03 04:09:00,31.7,23.4,30.20,NNE,19,2.0,-999.0,71,0.00,,,0.00,WeatherSnoop3.0,2013-02-03 10:09:00,
2013-02-03 04:14:00,32.7,24.0,30.20,NNE,23,3.0,-999.0,70,0.00,,,0.00,WeatherSnoop3.0,2013-02-03 10:14:00,
2013-02-03 04:19:00,34.0,24.6,30.20,North,356,3.0,-999.0,68,0.00,,,0.00,WeatherSnoop3.0,2013-02-03 10:19:00,
2013-02-03 04:24:00,35.0,24.8,30.20,North,11,2.0,-999.0,66,0.00,,,0.00,WeatherSnoop3.0,2013-02-03 10:24:00,
2013-02-03 04:29:00,35.6,25.0,30.20,North,360,1.0,-999.0,65,0.00,,,0.00,WeatherSnoop3.0,2013-02-03 10:29:00,
2013-02-03 04:34:00,35.7,25.1,30.21,NNE,24,0.0,-999.0,65,0.00,,,0.00,WeatherSnoop3.0,2013-02-03 10:34:00,
2013-02-03 04:39:00,35.6,25.0,30.21,NE,34,1.0,-999.0,65,0.00,,,0.00,WeatherSnoop3.0,2013-02-03 10:39:00,
2013-02-03 04:44:00,35.6,25.0,30.21,North,349,2.0,-999.0,65,0.00,,,0.00,WeatherSnoop3.0,2013-02-03 10:44:00,
2013-02-03 04:49:00,35.2,24.6,30.22,NNW,338,0.0,-999.0,65,0.00,,,0.00,WeatherSnoop3.0,2013-02-03 10:49:00,
2013-02-03 04:54:00,34.1,24.0,30.22,West,259,0.0,-999.0,66,0.00,,,0.00,WeatherSnoop3.0,2013-02-03 10:54:00,
2013-02-03 04:59:00,32.1,23.1,30.22,West,259,0.0,-999.0,69,0.00,,,0.00,WeatherSnoop3.0,2013-02-03 10:59:00,
2013-02-03 05:04:00,30.7,22.4,30.22,West,259,0.0,-999.0,71,0.00,,,0.00,WeatherSnoop3.0,2013-02-03 11:04:00,
2013-02-03 05:09:00,29.9,22.3,30.22,West,259,0.0,-999.0,73,0.00,,,0.00,WeatherSnoop3.0,2013-02-03 11:09:00,
2013-02-03 05:14:00,29.2,21.6,30.22,WSW,258,0.0,-999.0,73,0.00,,,0.00,WeatherSnoop3.0,2013-02-03 11:14:00,
2013-02-03 05:19:00,28.5,21.6,30.22,West,271,0.0,-999.0,75,0.00,,,0.00,WeatherSnoop3.0,2013-02-03 11:19:00,
2013-02-03 05:24:00,28.0,21.4,30.22,West,271,0.0,-999.0,76,0.00,,,0.00,WeatherSnoop3.0,2013-02-03 11:24:00,
2013-02-03 05:29:00,27.5,20.9,30.22,West,271,0.0,-999.0,76,0.00,,,0.00,WeatherSnoop3.0,2013-02-03 11:29:00,
2013-02-03 05:34:00,27.1,20.9,30.22,West,271,0.0,-999.0,77,0.00,,,0.00,WeatherSnoop3.0,2013-02-03 11:34:00,
2013-02-03 05:39:00,26.7,20.5,30.22,West,271,0.0,-999.0,77,0.00,,,0.00,WeatherSnoop3.0,2013-02-03 11:39:00,
2013-02-03 05:44:00,26.2,20.6,30.22,West,271,0.0,-999.0,79,0.00,,,0.00,WeatherSnoop3.0,2013-02-03 11:44:00,
2013-02-03 05:49:00,25.9,20.3,30.22,West,271,0.0,-999.0,79,0.00,,,0.00,WeatherSnoop3.0,2013-02-03 11:49:00,
2013-02-03 05:54:00,25.5,20.2,30.23,West,271,0.0,-999.0,80,0.00,,,0.00,WeatherSnoop3.0,2013-02-03 11:54:00,
2013-02-03 05:59:00,25.4,20.4,30.23,West,271,0.0,-999.0,81,0.00,,,0.00,WeatherSnoop3.0,2013-02-03 11:59:00,
2013-02-03 06:04:00,25.3,20.3,30.23,West,271,0.0,-999.0,81,0.00,,,0.00,WeatherSnoop3.0,2013-02-03 12:04:00,
2013-02-03 06:09:00,25.6,20.9,30.23,West,271,0.0,-999.0,82,0.00,,,0.00,WeatherSnoop3.0,2013-02-03 12:09:00,
2013-02-03 06:14:00,25.5,20.2,30.23,West,271,0.0,-999.0,80,0.00,,,0.00,WeatherSnoop3.0,2013-02-03 12:14:00,
2013-02-03 06:19:00,24.9,19.3,30.23,West,271,0.0,-999.0,79,0.00,,,0.00,WeatherSnoop3.0,2013-02-03 12:19:00,
2013-02-03 06:24:00,24.5,19.5,30.22,West,271,0.0,-999.0,81,0.00,,,0.00,WeatherSnoop3.0,2013-02-03 12:24:00,
2013-02-03 06:29:00,24.1,18.8,30.22,West,271,0.0,-999.0,80,0.00,,,0.00,WeatherSnoop3.0,2013-02-03 12:29:00,
2013-02-03 06:34:00,23.5,18.3,30.22,West,271,0.0,-999.0,80,0.00,,,0.00,WeatherSnoop3.0,2013-02-03 12:34:00,
2013-02-03 06:39:00,22.9,18.0,30.22,West,271,0.0,-999.0,81,0.00,,,0.00,WeatherSnoop3.0,2013-02-03 12:39:00,
2013-02-03 06:44:00,22.5,17.9,30.23,West,271,0.0,-999.0,82,0.00,,,0.00,WeatherSnoop3.0,2013-02-03 12:44:00,
2013-02-03 06:49:00,22.1,17.7,30.23,West,271,0.0,-999.0,83,0.00,,,0.00,WeatherSnoop3.0,2013-02-03 12:49:00,
2013-02-03 06:54:00,22.1,18.0,30.22,West,271,0.0,-999.0,84,0.00,,,0.00,WeatherSnoop3.0,2013-02-03 12:54:00,
2013-02-03 06:59:00,21.8,17.4,30.23,West,271,0.0,-999.0,83,0.00,,,0.00,WeatherSnoop3.0,2013-02-03 12:59:00,
2013-02-03 07:04:00,21.4,17.3,30.23,West,271,0.0,-999.0,84,0.00,,,0.00,WeatherSnoop3.0,2013-02-03 13:04:00,
2013-02-03 07:09:00,21.6,18.1,30.23,West,271,0.0,-999.0,86,0.00,,,0.00,WeatherSnoop3.0,2013-02-03 13:09:00,
2013-02-03 07:14:00,21.7,17.3,30.23,West,271,0.0,-999.0,83,0.00,,,0.00,WeatherSnoop3.0,2013-02-03 13:14:00,
2013-02-03 07:19:00,21.3,17.0,30.23,West,271,0.0,-999.0,83,0.00,,,0.00,WeatherSnoop3.0,2013-02-03 13:19:00,
2013-02-03 07:24:00,21.0,17.2,30.23,West,271,0.0,-999.0,85,0.00,,,0.00,WeatherSnoop3.0,2013-02-03 13:24:00,
2013-02-03 07:29:00,21.2,17.9,30.23,West,271,0.0,-999.0,87,0.00,,,0.00,WeatherSnoop3.0,2013-02-03 13:29:00,
2013-02-03 07:34:00,21.5,18.2,30.23,West,271,0.0,-999.0,87,0.00,,,0.00,WeatherSnoop3.0,2013-02-03 13:34:00,
2013-02-03 07:39:00,22.1,18.6,30.23,West,271,0.0,-999.0,86,0.00,,,0.00,WeatherSnoop3.0,2013-02-03 13:39:00,
2013-02-03 07:44:00,22.4,18.9,30.23,WSW,257,0.0,-999.0,86,0.00,,,0.00,WeatherSnoop3.0,2013-02-03 13:44:00,
2013-02-03 07:49:00,22.5,18.4,30.23,WSW,257,0.0,-999.0,84,0.00,,,0.00,WeatherSnoop3.0,2013-02-03 13:49:00,
2013-02-03 07:54:00,22.7,18.6,30.23,WSW,257,0.0,-999.0,84,0.00,,,0.00,WeatherSnoop3.0,2013-02-03 13:54:00,
2013-02-03 07:59:00,23.1,19.0,30.23,WSW,257,0.0,-999.0,84,0.00,,,0.00,WeatherSnoop3.0,2013-02-03 13:59:00,
2013-02-03 08:04:00,23.4,19.3,30.23,WSW,257,0.0,-999.0,84,0.00,,,0.00,WeatherSnoop3.0,2013-02-03 14:04:00,
2013-02-03 08:09:00,23.6,19.5,30.23,WSW,257,0.0,-999.0,84,0.00,,,0.00,WeatherSnoop3.0,2013-02-03 14:09:00,
2013-02-03 08:14:00,24.2,20.6,30.23,WSW,257,0.0,-999.0,86,0.00,,,0.00,WeatherSnoop3.0,2013-02-03 14:14:00,
2013-02-03 08:19:00,25.1,21.5,30.23,WSW,257,0.0,-999.0,86,0.00,,,0.00,WeatherSnoop3.0,2013-02-03 14:19:00,
2013-02-03 08:24:00,25.9,22.0,30.23,WSW,257,0.0,-999.0,85,0.00,,,0.00,WeatherSnoop3.0,2013-02-03 14:24:00,
2013-02-03 08:29:00,26.5,22.6,30.23,WSW,248,0.0,-999.0,85,0.00,,,0.00,WeatherSnoop3.0,2013-02-03 14:29:00,
2013-02-03 08:34:00,27.4,23.2,30.23,WSW,248,0.0,-999.0,84,0.00,,,0.00,WeatherSnoop3.0,2013-02-03 14:34:00,
2013-02-03 08:39:00,28.5,23.7,30.23,WSW,248,0.0,-999.0,82,0.00,,,0.00,WeatherSnoop3.0,2013-02-03 14:39:00,
2013-02-03 08:44:00,29.6,24.8,30.23,WSW,248,0.0,-999.0,82,0.00,,,0.00,WeatherSnoop3.0,2013-02-03 14:44:00,
2013-02-03 08:49:00,30.7,25.3,30.23,WSW,250,1.0,-999.0,80,0.00,,,0.00,WeatherSnoop3.0,2013-02-03 14:49:00,
2013-02-03 08:54:00,31.9,26.1,30.23,WSW,257,1.0,-999.0,79,0.00,,,0.00,WeatherSnoop3.0,2013-02-03 14:54:00,
2013-02-03 08:59:00,33.0,26.3,30.23,WSW,243,0.0,-999.0,76,0.00,,,0.00,WeatherSnoop3.0,2013-02-03 14:59:00,
2013-02-03 09:04:00,33.9,26.5,30.23,SW,226,0.0,-999.0,74,0.00,,,0.00,WeatherSnoop3.0,2013-02-03 15:04:00,
2013-02-03 09:09:00,34.8,26.7,30.23,SE,138,1.0,-999.0,72,0.00,,,0.00,WeatherSnoop3.0,2013-02-03 15:09:00,
2013-02-03 09:14:00,35.8,27.0,30.23,SSE,167,0.0,-999.0,70,0.00,,,0.00,WeatherSnoop3.0,2013-02-03 15:14:00,
2013-02-03 09:19:00,36.7,27.2,30.22,East,86,0.0,-999.0,68,0.00,,,0.00,WeatherSnoop3.0,2013-02-03 15:19:00,
2013-02-03 09:24:00,37.9,27.2,30.22,NNE,32,2.0,-999.0,65,0.00,,,0.00,WeatherSnoop3.0,2013-02-03 15:24:00,
2013-02-03 09:29:00,38.8,27.3,30.22,East,101,1.0,-999.0,63,0.00,,,0.00,WeatherSnoop3.0,2013-02-03 15:29:00,
2013-02-03 09:34:00,39.6,27.3,30.21,ENE,57,3.0,-999.0,61,0.00,,,0.00,WeatherSnoop3.0,2013-02-03 15:34:00,
2013-02-03 09:39:00,40.0,27.3,30.21,East,93,3.0,-999.0,60,0.00,,,0.00,WeatherSnoop3.0,2013-02-03 15:39:00,
2013-02-03 09:44:00,40.2,27.0,30.21,ENE,75,2.0,-999.0,59,0.00,,,0.00,WeatherSnoop3.0,2013-02-03 15:44:00,
2013-02-03 09:49:00,40.3,26.7,30.21,East,84,2.0,-999.0,58,0.00,,,0.00,WeatherSnoop3.0,2013-02-03 15:49:00,
2013-02-03 09:54:00,40.9,27.7,30.21,ENE,63,4.0,-999.0,59,0.00,,,0.00,WeatherSnoop3.0,2013-02-03 15:54:00,
2013-02-03 09:59:00,41.3,27.2,30.20,ESE,116,1.0,-999.0,57,0.00,,,0.00,WeatherSnoop3.0,2013-02-03 15:59:00,
2013-02-03 10:04:00,41.6,26.6,30.20,NE,49,2.0,-999.0,55,0.00,,,0.00,WeatherSnoop3.0,2013-02-03 16:04:00,
2013-02-03 10:09:00,42.0,26.6,30.20,East,98,2.0,-999.0,54,0.00,,,0.00,WeatherSnoop3.0,2013-02-03 16:09:00,
2013-02-03 10:14:00,42.7,27.7,30.21,East,89,1.0,-999.0,55,0.00,,,0.00,WeatherSnoop3.0,2013-02-03 16:14:00,
2013-02-03 10:19:00,43.2,26.8,30.20,East,90,2.0,-999.0,52,0.00,,,0.00,WeatherSnoop3.0,2013-02-03 16:19:00,
2013-02-03 10:24:00,43.7,27.2,30.20,East,94,3.0,-999.0,52,0.00,,,0.00,WeatherSnoop3.0,2013-02-03 16:24:00,
2013-02-03 10:29:00,44.0,27.0,30.20,East,87,4.0,-999.0,51,0.00,,,0.00,WeatherSnoop3.0,2013-02-03 16:29:00,
2013-02-03 10:34:00,44.4,27.4,30.20,ESE,122,2.0,-999.0,51,0.00,,,0.00,WeatherSnoop3.0,2013-02-03 16:34:00,
2013-02-03 10:39:00,44.9,27.4,30.20,ENE,68,1.0,-999.0,50,0.00,,,0.00,WeatherSnoop3.0,2013-02-03 16:39:00,
2013-02-03 10:44:00,45.2,27.2,30.20,SE,126,4.0,-999.0,49,0.00,,,0.00,WeatherSnoop3.0,2013-02-03 16:44:00,
2013-02-03 10:49:00,44.9,27.4,30.19,East,82,1.0,-999.0,50,0.00,,,0.00,WeatherSnoop3.0,2013-02-03 16:49:00,
2013-02-03 10:54:00,45.2,26.7,30.19,ESE,102,1.0,-999.0,48,0.00,,,0.00,WeatherSnoop3.0,2013-02-03 16:54:00,
2013-02-03 10:59:00,45.5,27.0,30.19,East,100,3.0,-999.0,48,0.00,,,0.00,WeatherSnoop3.0,2013-02-03 16:59:00,
2013-02-03 11:04:00,46.2,27.1,30.18,East,89,3.0,-999.0,47,0.00,,,0.00,WeatherSnoop3.0,2013-02-03 17:04:00,
2013-02-03 11:09:00,46.5,26.9,30.18,ESE,115,2.0,-999.0,46,0.00,,,0.00,WeatherSnoop3.0,2013-02-03 17:09:00,
2013-02-03 11:14:00,47.1,26.9,30.18,SE,141,5.0,-999.0,45,0.00,,,0.00,WeatherSnoop3.0,2013-02-03 17:14:00,
2013-02-03 11:19:00,46.9,26.7,30.17,East,89,3.0,-999.0,45,0.00,,,0.00,WeatherSnoop3.0,2013-02-03 17:19:00,
2013-02-03 11:24:00,47.5,27.2,30.17,SE,134,3.0,-999.0,45,0.00,,,0.00,WeatherSnoop3.0,2013-02-03 17:24:00,
2013-02-03 11:29:00,47.9,26.5,30.17,ENE,71,4.0,-999.0,43,0.00,,,0.00,WeatherSnoop3.0,2013-02-03 17:29:00,
2013-02-03 11:34:00,48.3,26.3,30.17,SE,128,5.0,-999.0,42,0.00,,,0.00,WeatherSnoop3.0,2013-02-03 17:34:00,
2013-02-03 11:39:00,48.7,26.6,30.17,ESE,122,2.0,-999.0,42,0.00,,,0.00,WeatherSnoop3.0,2013-02-03 17:39:00,
2013-02-03 11:44:00,49.0,26.3,30.16,SE,140,4.0,-999.0,41,0.00,,,0.00,WeatherSnoop3.0,2013-02-03 17:44:00,
2013-02-03 11:49:00,49.0,25.7,30.16,SE,129,2.0,-999.0,40,0.00,,,0.00,WeatherSnoop3.0,2013-02-03 17:49:00,
2013-02-03 11:54:00,49.2,26.5,30.16,SE,146,7.0,-999.0,41,0.00,,,0.00,WeatherSnoop3.0,2013-02-03 17:54:00,
2013-02-03 11:59:00,49.3,26.0,30.15,ESE,107,4.0,-999.0,40,0.00,,,0.00,WeatherSnoop3.0,2013-02-03 17:59:00,
2013-02-03 12:04:00,50.0,26.6,30.15,East,84,3.0,-999.0,40,0.00,,,0.00,WeatherSnoop3.0,2013-02-03 18:04:00,
2013-02-03 12:09:00,50.2,26.2,30.15,SE,126,2.0,-999.0,39,0.00,,,0.00,WeatherSnoop3.0,2013-02-03 18:09:00,
2013-02-03 12:14:00,50.2,26.8,30.14,SE,138,2.0,-999.0,40,0.00,,,0.00,WeatherSnoop3.0,2013-02-03 18:14:00,
2013-02-03 12:19:00,50.7,26.0,30.14,ESE,121,3.0,-999.0,38,0.00,,,0.00,WeatherSnoop3.0,2013-02-03 18:19:00,
2013-02-03 12:24:00,50.9,26.2,30.13,SSW,195,6.0,-999.0,38,0.00,,,0.00,WeatherSnoop3.0,2013-02-03 18:24:00,
2013-02-03 12:29:00,50.9,26.2,30.13,SSE,149,7.0,-999.0,38,0.00,,,0.00,WeatherSnoop3.0,2013-02-03 18:29:00,
2013-02-03 12:34:00,50.8,25.5,30.12,SSE,158,6.0,-999.0,37,0.00,,,0.00,WeatherSnoop3.0,2013-02-03 18:34:00,
2013-02-03 12:39:00,51.0,24.3,30.12,SSE,149,4.0,-999.0,35,0.00,,,0.00,WeatherSnoop3.0,2013-02-03 18:39:00,
2013-02-03 12:44:00,51.2,25.8,30.12,South,183,3.0,-999.0,37,0.00,,,0.00,WeatherSnoop3.0,2013-02-03 18:44:00,
2013-02-03 12:49:00,51.4,26.0,30.11,SE,125,3.0,-999.0,37,0.00,,,0.00,WeatherSnoop3.0,2013-02-03 18:49:00,
2013-02-03 12:54:00,51.8,25.0,30.10,SSE,153,6.0,-999.0,35,0.00,,,0.00,WeatherSnoop3.0,2013-02-03 18:54:00,
2013-02-03 12:59:00,52.2,25.4,30.10,ESE,115,5.0,-999.0,35,0.00,,,0.00,WeatherSnoop3.0,2013-02-03 18:59:00,
2013-02-03 13:04:00,52.5,24.2,30.09,SE,137,6.0,-999.0,33,0.00,,,0.00,WeatherSnoop3.0,2013-02-03 19:04:00,
2013-02-03 13:09:00,52.8,24.5,30.09,ESE,117,3.0,-999.0,33,0.00,,,0.00,WeatherSnoop3.0,2013-02-03 19:09:00,
2013-02-03 13:14:00,53.5,25.1,30.09,SSE,155,4.0,-999.0,33,0.00,,,0.00,WeatherSnoop3.0,2013-02-03 19:14:00,
2013-02-03 13:19:00,54.1,24.9,30.08,SSW,193,3.0,-999.0,32,0.00,,,0.00,WeatherSnoop3.0,2013-02-03 19:19:00,
2013-02-03 13:24:00,54.4,25.2,30.08,SW,219,9.0,-999.0,32,0.00,,,0.00,WeatherSnoop3.0,2013-02-03 19:24:00,
2013-02-03 13:29:00,54.1,24.1,30.07,SSE,148,6.0,-999.0,31,0.00,,,0.00,WeatherSnoop3.0,2013-02-03 19:29:00,
2013-02-03 13:34:00,53.9,24.7,30.07,SSE,155,6.0,-999.0,32,0.00,,,0.00,WeatherSnoop3.0,2013-02-03 19:34:00,
2013-02-03 13:39:00,54.1,24.1,30.06,SSE,155,8.0,-999.0,31,0.00,,,0.00,WeatherSnoop3.0,2013-02-03 19:39:00,
2013-02-03 13:44:00,54.3,25.1,30.06,SSW,204,4.0,-999.0,32,0.00,,,0.00,WeatherSnoop3.0,2013-02-03 19:44:00,
2013-02-03 13:49:00,54.4,25.9,30.05,ESE,110,4.0,-999.0,33,0.00,,,0.00,WeatherSnoop3.0,2013-02-03 19:49:00,
2013-02-03 13:54:00,54.8,26.3,30.05,SSE,156,8.0,-999.0,33,0.00,,,0.00,WeatherSnoop3.0,2013-02-03 19:54:00,
2013-02-03 13:59:00,55.2,25.9,30.04,South,174,4.0,-999.0,32,0.00,,,0.00,WeatherSnoop3.0,2013-02-03 19:59:00,
2013-02-03 14:04:00,55.4,25.3,30.04,SW,215,5.0,-999.0,31,0.00,,,0.00,WeatherSnoop3.0,2013-02-03 20:04:00,
2013-02-03 14:09:00,55.6,25.5,30.03,SSE,168,6.0,-999.0,31,0.00,,,0.00,WeatherSnoop3.0,2013-02-03 20:09:00,
2013-02-03 14:14:00,55.7,24.8,30.03,WNW,285,4.0,-999.0,30,0.00,,,0.00,WeatherSnoop3.0,2013-02-03 20:14:00,
2013-02-03 14:19:00,55.6,24.7,30.02,South,176,9.0,-999.0,30,0.00,,,0.00,WeatherSnoop3.0,2013-02-03 20:19:00,
2013-02-03 14:24:00,55.5,25.4,30.02,SSE,162,8.0,-999.0,31,0.00,,,0.00,WeatherSnoop3.0,2013-02-03 20:24:00,
2013-02-03 14:29:00,55.7,24.8,30.02,SSE,149,5.0,-999.0,30,0.00,,,0.00,WeatherSnoop3.0,2013-02-03 20:29:00,
2013-02-03 14:34:00,55.6,24.7,30.01,SE,138,7.0,-999.0,30,0.00,,,0.00,WeatherSnoop3.0,2013-02-03 20:34:00,
2013-02-03 14:39:00,55.6,25.5,30.01,SE,134,6.0,-999.0,31,0.00,,,0.00,WeatherSnoop3.0,2013-02-03 20:39:00,
2013-02-03 14:44:00,55.6,26.2,30.01,SE,142,5.0,-999.0,32,0.00,,,0.00,WeatherSnoop3.0,2013-02-03 20:44:00,
2013-02-03 14:49:00,56.2,25.2,30.00,SSW,205,12.0,-999.0,30,0.00,,,0.00,WeatherSnoop3.0,2013-02-03 20:49:00,
2013-02-03 14:54:00,55.9,24.9,30.00,South,177,4.0,-999.0,30,0.00,,,0.00,WeatherSnoop3.0,2013-02-03 20:54:00,
2013-02-03 14:59:00,55.7,24.8,30.00,SSE,167,6.0,-999.0,30,0.00,,,0.00,WeatherSnoop3.0,2013-02-03 20:59:00,
2013-02-03 15:04:00,55.9,24.1,30.00,ESE,122,10.0,-999.0,29,0.00,,,0.00,WeatherSnoop3.0,2013-02-03 21:04:00,
2013-02-03 15:09:00,55.9,24.1,30.00,SSW,198,3.0,-999.0,29,0.00,,,0.00,WeatherSnoop3.0,2013-02-03 21:09:00,
2013-02-03 15:14:00,55.8,24.0,30.00,SSE,150,6.0,-999.0,29,0.00,,,0.00,WeatherSnoop3.0,2013-02-03 21:14:00,
2013-02-03 15:19:00,55.9,24.1,29.99,South,187,7.0,-999.0,29,0.00,,,0.00,WeatherSnoop3.0,2013-02-03 21:19:00,
2013-02-03 15:24:00,56.1,24.3,29.99,South,177,5.0,-999.0,29,0.00,,,0.00,WeatherSnoop3.0,2013-02-03 21:24:00,
2013-02-03 15:29:00,56.1,24.3,29.99,ESE,122,7.0,-999.0,29,0.00,,,0.00,WeatherSnoop3.0,2013-02-03 21:29:00,
2013-02-03 15:34:00,56.0,24.2,29.99,South,170,6.0,-999.0,29,0.00,,,0.00,WeatherSnoop3.0,2013-02-03 21:34:00,
2013-02-03 15:39:00,56.0,24.2,29.98,South,175,6.0,-999.0,29,0.00,,,0.00,WeatherSnoop3.0,2013-02-03 21:39:00,
2013-02-03 15:44:00,55.9,24.1,29.98,SSW,204,9.0,-999.0,29,0.00,,,0.00,WeatherSnoop3.0,2013-02-03 21:44:00,
2013-02-03 15:49:00,55.8,24.0,29.98,SE,146,8.0,-999.0,29,0.00,,,0.00,WeatherSnoop3.0,2013-02-03 21:49:00,
2013-02-03 15:54:00,55.9,24.9,29.98,South,179,6.0,-999.0,30,0.00,,,0.00,WeatherSnoop3.0,2013-02-03 21:54:00,
2013-02-03 15:59:00,56.2,25.2,29.97,SW,218,7.0,-999.0,30,0.00,,,0.00,WeatherSnoop3.0,2013-02-03 21:59:00,
2013-02-03 16:04:00,56.6,25.5,29.97,South,187,4.0,-999.0,30,0.00,,,0.00,WeatherSnoop3.0,2013-02-03 22:04:00,
2013-02-03 16:09:00,56.5,25.4,29.97,SW,219,7.0,-999.0,30,0.00,,,0.00,WeatherSnoop3.0,2013-02-03 22:09:00,
2013-02-03 16:14:00,56.3,26.1,29.96,SE,128,6.0,-999.0,31,0.00,,,0.00,WeatherSnoop3.0,2013-02-03 22:14:00,
2013-02-03 16:19:00,56.2,26.0,29.96,SSW,211,4.0,-999.0,31,0.00,,,0.00,WeatherSnoop3.0,2013-02-03 22:19:00,
2013-02-03 16:24:00,55.7,25.5,29.96,SE,143,7.0,-999.0,31,0.00,,,0.00,WeatherSnoop3.0,2013-02-03 22:24:00,
2013-02-03 16:29:00,55.6,26.2,29.95,South,172,4.0,-999.0,32,0.00,,,0.00,WeatherSnoop3.0,2013-02-03 22:29:00,
2013-02-03 16:34:00,55.7,26.3,29.95,SE,143,7.0,-999.0,32,0.00,,,0.00,WeatherSnoop3.0,2013-02-03 22:34:00,
2013-02-03 16:39:00,55.9,26.5,29.94,SSW,203,2.0,-999.0,32,0.00,,,0.00,WeatherSnoop3.0,2013-02-03 22:39:00,
2013-02-03 16:44:00,55.9,26.5,29.94,SSE,164,4.0,-999.0,32,0.00,,,0.00,WeatherSnoop3.0,2013-02-03 22:44:00,
2013-02-03 16:49:00,56.1,26.7,29.94,SE,142,6.0,-999.0,32,0.00,,,0.00,WeatherSnoop3.0,2013-02-03 22:49:00,
2013-02-03 16:54:00,56.2,26.7,29.93,SSW,210,6.0,-999.0,32,0.00,,,0.00,WeatherSnoop3.0,2013-02-03 22:54:00,
2013-02-03 16:59:00,56.3,26.8,29.93,SSW,195,4.0,-999.0,32,0.00,,,0.00,WeatherSnoop3.0,2013-02-03 22:59:00,
2013-02-03 17:04:00,56.0,26.6,29.92,South,191,6.0,-999.0,32,0.00,,,0.00,WeatherSnoop3.0,2013-02-03 23:04:00,
2013-02-03 17:09:00,55.6,26.2,29.92,South,180,4.0,-999.0,32,0.00,,,0.00,WeatherSnoop3.0,2013-02-03 23:09:00,
2013-02-03 17:14:00,55.2,26.6,29.92,SE,144,6.0,-999.0,33,0.00,,,0.00,WeatherSnoop3.0,2013-02-03 23:14:00,
2013-02-03 17:19:00,54.8,26.3,29.92,SSE,153,4.0,-999.0,33,0.00,,,0.00,WeatherSnoop3.0,2013-02-03 23:19:00,
2013-02-03 17:24:00,54.5,26.7,29.92,SE,134,3.0,-999.0,34,0.00,,,0.00,WeatherSnoop3.0,2013-02-03 23:24:00,
2013-02-03 17:29:00,54.1,26.4,29.92,SE,134,5.0,-999.0,34,0.00,,,0.00,WeatherSnoop3.0,2013-02-03 23:29:00,
2013-02-03 17:34:00,53.7,26.7,29.92,SSW,200,3.0,-999.0,35,0.00,,,0.00,WeatherSnoop3.0,2013-02-03 23:34:00,
2013-02-03 17:39:00,53.3,27.0,29.91,SE,143,3.0,-999.0,36,0.00,,,0.00,WeatherSnoop3.0,2013-02-03 23:39:00,
2013-02-03 17:44:00,52.9,26.7,29.91,South,169,2.0,-999.0,36,0.00,,,0.00,WeatherSnoop3.0,2013-02-03 23:44:00,
2013-02-03 17:49:00,52.5,27.0,29.91,SSE,149,2.0,-999.0,37,0.00,,,0.00,WeatherSnoop3.0,2013-02-03 23:49:00,
2013-02-03 17:54:00,52.0,27.2,29.91,South,172,2.0,-999.0,38,0.00,,,0.00,WeatherSnoop3.0,2013-02-03 23:54:00,
2013-02-03 17:59:00,51.5,26.7,29.91,SSW,198,3.0,-999.0,38,0.00,,,0.00,WeatherSnoop3.0,2013-02-03 23:59:00,
2013-02-03 18:04:00,51.1,27.0,29.91,SSE,155,1.0,-999.0,39,0.00,,,0.00,WeatherSnoop3.0,2013-02-04 00:04:00,
2013-02-03 18:09:00,50.8,26.7,29.91,SSE,155,2.0,-999.0,39,0.00,,,0.00,WeatherSnoop3.0,2013-02-04 00:09:00,
2013-02-03 18:14:00,50.5,27.1,29.91,South,170,2.0,-999.0,40,0.00,,,0.00,WeatherSnoop3.0,2013-02-04 00:14:00,
2013-02-03 18:19:00,50.3,26.9,29.90,SSW,205,4.0,-999.0,40,0.00,,,0.00,WeatherSnoop3.0,2013-02-04 00:19:00,
2013-02-03 18:24:00,50.0,27.2,29.90,SSE,165,2.0,-999.0,41,0.00,,,0.00,WeatherSnoop3.0,2013-02-04 00:24:00,
2013-02-03 18:29:00,49.8,27.1,29.90,SE,143,3.0,-999.0,41,0.00,,,0.00,WeatherSnoop3.0,2013-02-04 00:29:00,
2013-02-03 18:34:00,49.6,27.5,29.90,SSE,160,2.0,-999.0,42,0.00,,,0.00,WeatherSnoop3.0,2013-02-04 00:34:00,
2013-02-03 18:39:00,49.5,27.4,29.89,SW,222,3.0,-999.0,42,0.00,,,0.00,WeatherSnoop3.0,2013-02-04 00:39:00,
2013-02-03 18:44:00,49.6,28.0,29.89,SE,132,5.0,-999.0,43,0.00,,,0.00,WeatherSnoop3.0,2013-02-04 00:44:00,
2013-02-03 18:49:00,49.7,28.1,29.89,SSE,150,4.0,-999.0,43,0.00,,,0.00,WeatherSnoop3.0,2013-02-04 00:49:00,
2013-02-03 18:54:00,49.7,28.1,29.89,SSE,149,4.0,-999.0,43,0.00,,,0.00,WeatherSnoop3.0,2013-02-04 00:54:00,
2013-02-03 18:59:00,49.7,27.6,29.89,SSE,153,5.0,-999.0,42,0.00,,,0.00,WeatherSnoop3.0,2013-02-04 00:59:00,
2013-02-03 19:04:00,49.6,28.0,29.89,SE,141,3.0,-999.0,43,0.00,,,0.00,WeatherSnoop3.0,2013-02-04 01:04:00,
2013-02-03 19:09:00,49.5,27.9,29.89,SSW,206,3.0,-999.0,43,0.00,,,0.00,WeatherSnoop3.0,2013-02-04 01:09:00,
2013-02-03 19:14:00,49.3,27.8,29.89,SSE,155,3.0,-999.0,43,0.00,,,0.00,WeatherSnoop3.0,2013-02-04 01:14:00,
2013-02-03 19:19:00,49.2,27.7,29.88,South,176,4.0,-999.0,43,0.00,,,0.00,WeatherSnoop3.0,2013-02-04 01:19:00,
2013-02-03 19:24:00,49.1,27.6,29.88,ESE,120,4.0,-999.0,43,0.00,,,0.00,WeatherSnoop3.0,2013-02-04 01:24:00,
2013-02-03 19:29:00,48.9,28.0,29.88,SE,142,4.0,-999.0,44,0.00,,,0.00,WeatherSnoop3.0,2013-02-04 01:29:00,
2013-02-03 19:34:00,48.8,27.9,29.88,SSW,193,6.0,-999.0,44,0.00,,,0.00,WeatherSnoop3.0,2013-02-04 01:34:00,
2013-02-03 19:39:00,48.6,27.7,29.88,South,184,4.0,-999.0,44,0.00,,,0.00,WeatherSnoop3.0,2013-02-04 01:39:00,
2013-02-03 19:44:00,48.5,28.1,29.87,SSE,150,4.0,-999.0,45,0.00,,,0.00,WeatherSnoop3.0,2013-02-04 01:44:00,
2013-02-03 19:49:00,48.4,28.0,29.87,SE,136,5.0,-999.0,45,0.00,,,0.00,WeatherSnoop3.0,2013-02-04 01:49:00,
2013-02-03 19:54:00,48.3,28.0,29.87,South,183,3.0,-999.0,45,0.00,,,0.00,WeatherSnoop3.0,2013-02-04 01:54:00,
2013-02-03 19:59:00,48.2,28.4,29.87,South,191,4.0,-999.0,46,0.00,,,0.00,WeatherSnoop3.0,2013-02-04 01:59:00,
2013-02-03 20:04:00,48.1,28.3,29.87,SSE,168,3.0,-999.0,46,0.00,,,0.00,WeatherSnoop3.0,2013-02-04 02:04:00,
2013-02-03 20:09:00,48.1,28.3,29.86,SSE,155,3.0,-999.0,46,0.00,,,0.00,WeatherSnoop3.0,2013-02-04 02:09:00,
2013-02-03 20:14:00,47.9,28.1,29.86,SSW,203,4.0,-999.0,46,0.00,,,0.00,WeatherSnoop3.0,2013-02-04 02:14:00,
2013-02-03 20:19:00,47.8,28.6,29.86,SSE,165,4.0,-999.0,47,0.00,,,0.00,WeatherSnoop3.0,2013-02-04 02:19:00,
2013-02-03 20:24:00,47.8,28.6,29.86,SSE,166,4.0,-999.0,47,0.00,,,0.00,WeatherSnoop3.0,2013-02-04 02:24:00,
2013-02-03 20:29:00,47.8,28.6,29.86,SE,129,4.0,-999.0,47,0.00,,,0.00,WeatherSnoop3.0,2013-02-04 02:29:00,
2013-02-03 20:34:00,48.0,28.7,29.86,SE,145,4.0,-999.0,47,0.00,,,0.00,WeatherSnoop3.0,2013-02-04 02:34:00,
2013-02-03 20:39:00,48.1,28.8,29.86,SSW,211,8.0,-999.0,47,0.00,,,0.00,WeatherSnoop3.0,2013-02-04 02:39:00,
2013-02-03 20:44:00,48.4,29.1,29.86,SE,139,6.0,-999.0,47,0.00,,,0.00,WeatherSnoop3.0,2013-02-04 02:44:00,
2013-02-03 20:49:00,48.4,29.1,29.85,South,184,5.0,-999.0,47,0.00,,,0.00,WeatherSnoop3.0,2013-02-04 02:49:00,
2013-02-03 20:54:00,48.5,29.2,29.85,SSE,156,4.0,-999.0,47,0.00,,,0.00,WeatherSnoop3.0,2013-02-04 02:54:00,
2013-02-03 20:59:00,48.6,29.3,29.85,South,191,6.0,-999.0,47,0.00,,,0.00,WeatherSnoop3.0,2013-02-04 02:59:00,
2013-02-03 21:04:00,48.7,29.4,29.84,SSW,210,6.0,-999.0,47,0.00,,,0.00,WeatherSnoop3.0,2013-02-04 03:04:00,
2013-02-03 21:09:00,48.8,29.5,29.84,SSE,163,3.0,-999.0,47,0.00,,,0.00,WeatherSnoop3.0,2013-02-04 03:09:00,
2013-02-03 21:14:00,48.7,29.4,29.84,SSE,163,5.0,-999.0,47,0.00,,,0.00,WeatherSnoop3.0,2013-02-04 03:14:00,
2013-02-03 21:19:00,48.7,29.4,29.84,SSE,164,6.0,-999.0,47,0.00,,,0.00,WeatherSnoop3.0,2013-02-04 03:19:00,
2013-02-03 21:24:00,48.7,29.4,29.84,SE,139,6.0,-999.0,47,0.00,,,0.00,WeatherSnoop3.0,2013-02-04 03:24:00,
2013-02-03 21:29:00,48.5,29.2,29.84,SSE,162,4.0,-999.0,47,0.00,,,0.00,WeatherSnoop3.0,2013-02-04 03:29:00,
2013-02-03 21:34:00,48.5,29.7,29.84,South,176,4.0,-999.0,48,0.00,,,0.00,WeatherSnoop3.0,2013-02-04 03:34:00,
2013-02-03 21:39:00,48.4,29.6,29.84,SSW,194,7.0,-999.0,48,0.00,,,0.00,WeatherSnoop3.0,2013-02-04 03:39:00,
2013-02-03 21:44:00,48.3,29.5,29.83,SSE,152,4.0,-999.0,48,0.00,,,0.00,WeatherSnoop3.0,2013-02-04 03:44:00,
2013-02-03 21:49:00,48.3,29.5,29.83,SSE,162,2.0,-999.0,48,0.00,,,0.00,WeatherSnoop3.0,2013-02-04 03:49:00,
2013-02-03 21:54:00,48.4,29.6,29.83,SSW,195,5.0,-999.0,48,0.00,,,0.00,WeatherSnoop3.0,2013-02-04 03:54:00,
2013-02-03 21:59:00,48.4,29.6,29.83,SSW,208,4.0,-999.0,48,0.00,,,0.00,WeatherSnoop3.0,2013-02-04 03:59:00,
2013-02-03 22:04:00,48.5,29.7,29.82,SSW,212,7.0,-999.0,48,0.00,,,0.00,WeatherSnoop3.0,2013-02-04 04:04:00,
2013-02-03 22:09:00,48.6,29.8,29.82,South,177,3.0,-999.0,48,0.00,,,0.00,WeatherSnoop3.0,2013-02-04 04:09:00,
2013-02-03 22:14:00,48.7,29.9,29.82,SSE,162,4.0,-999.0,48,0.00,,,0.00,WeatherSnoop3.0,2013-02-04 04:14:00,
2013-02-03 22:19:00,48.7,29.9,29.82,SE,133,5.0,-999.0,48,0.00,,,0.00,WeatherSnoop3.0,2013-02-04 04:19:00,
2013-02-03 22:24:00,48.7,29.9,29.82,South,176,6.0,-999.0,48,0.00,,,0.00,WeatherSnoop3.0,2013-02-04 04:24:00,
2013-02-03 22:29:00,48.8,30.0,29.82,South,185,4.0,-999.0,48,0.00,,,0.00,WeatherSnoop3.0,2013-02-04 04:29:00,
2013-02-03 22:34:00,48.9,30.1,29.81,SE,131,4.0,-999.0,48,0.00,,,0.00,WeatherSnoop3.0,2013-02-04 04:34:00,
2013-02-03 22:39:00,49.0,30.2,29.81,SSW,197,5.0,-999.0,48,0.00,,,0.00,WeatherSnoop3.0,2013-02-04 04:39:00,
2013-02-03 22:44:00,49.1,30.3,29.81,SSE,150,4.0,-999.0,48,0.00,,,0.00,WeatherSnoop3.0,2013-02-04 04:44:00,
2013-02-03 22:49:00,49.1,30.3,29.81,SE,134,5.0,-999.0,48,0.00,,,0.00,WeatherSnoop3.0,2013-02-04 04:49:00,
2013-02-03 22:54:00,49.0,30.2,29.81,SE,134,8.0,-999.0,48,0.00,,,0.00,WeatherSnoop3.0,2013-02-04 04:54:00,
2013-02-03 22:59:00,49.1,30.3,29.80,SE,137,3.0,-999.0,48,0.00,,,0.00,WeatherSnoop3.0,2013-02-04 04:59:00,
2013-02-03 23:04:00,49.1,30.3,29.80,South,179,6.0,-999.0,48,0.00,,,0.00,WeatherSnoop3.0,2013-02-04 05:04:00,
2013-02-03 23:09:00,49.2,30.4,29.80,SSE,148,4.0,-999.0,48,0.00,,,0.00,WeatherSnoop3.0,2013-02-04 05:09:00,
2013-02-03 23:14:00,49.1,30.8,29.80,South,183,6.0,-999.0,49,0.00,,,0.00,WeatherSnoop3.0,2013-02-04 05:14:00,
2013-02-03 23:19:00,49.0,30.7,29.79,South,191,3.0,-999.0,49,0.00,,,0.00,WeatherSnoop3.0,2013-02-04 05:19:00,
2013-02-03 23:24:00,48.9,30.6,29.79,SSW,194,4.0,-999.0,49,0.00,,,0.00,WeatherSnoop3.0,2013-02-04 05:24:00,
2013-02-03 23:29:00,48.9,30.6,29.79,SW,219,6.0,-999.0,49,0.00,,,0.00,WeatherSnoop3.0,2013-02-04 05:29:00,
2013-02-03 23:34:00,48.7,30.9,29.79,SE,139,7.0,-999.0,50,0.00,,,0.00,WeatherSnoop3.0,2013-02-04 05:34:00,
2013-02-03 23:39:00,48.6,30.8,29.79,ESE,118,5.0,-999.0,50,0.00,,,0.00,WeatherSnoop3.0,2013-02-04 05:39:00,
2013-02-03 23:44:00,48.6,30.8,29.79,SSW,202,3.0,-999.0,50,0.00,,,0.00,WeatherSnoop3.0,2013-02-04 05:44:00,
2013-02-03 23:49:00,48.4,30.6,29.79,SSE,168,3.0,-999.0,50,0.00,,,0.00,WeatherSnoop3.0,2013-02-04 05:49:00,
2013-02-03 23:54:00,48.3,31.0,29.79,SSE,162,3.0,-999.0,51,0.00,,,0.00,WeatherSnoop3.0,2013-02-04 05:54:00,
2013-02-03 23:59:00,48.1,30.8,29.79,SSW,210,3.0,-999.0,51,0.00,,,0.00,WeatherSnoop3.0,2013-02-04 05:59:00,